createdAt,value
2018-06-09T00:01:50.112Z,21.60
2018-06-09T00:04:18.254Z,21.57
2018-06-09T00:06:46.455Z,21.57
2018-06-09T00:09:14.660Z,21.54
2018-06-09T00:11:42.879Z,21.51
2018-06-09T00:14:17.955Z,21.47
2018-06-09T00:16:46.157Z,21.43
2018-06-09T00:19:14.412Z,21.42
2018-06-09T00:21:42.598Z,21.38
2018-06-09T00:24:10.864Z,21.35
2018-06-09T00:26:39.166Z,21.31
2018-06-09T00:29:07.388Z,21.28
2018-06-09T00:31:35.908Z,21.25
2018-06-09T00:34:04.136Z,21.24
2018-06-09T00:36:32.325Z,21.22
2018-06-09T00:39:00.530Z,21.20
2018-06-09T00:41:28.899Z,21.18
2018-06-09T00:43:57.073Z,21.19
2018-06-09T00:46:25.323Z,21.21
2018-06-09T00:48:53.468Z,21.20
2018-06-09T00:51:21.651Z,21.19
2018-06-09T00:53:49.808Z,21.16
2018-06-09T00:56:29.347Z,21.14
2018-06-09T00:58:57.565Z,21.11
2018-06-09T01:01:25.788Z,21.10
2018-06-09T01:03:53.959Z,21.08
2018-06-09T01:06:22.149Z,21.02
2018-06-09T01:08:50.428Z,20.94
2018-06-09T01:11:18.668Z,20.89
2018-06-09T01:13:46.924Z,20.87
2018-06-09T01:16:15.140Z,20.85
2018-06-09T01:18:43.344Z,20.83
2018-06-09T01:21:11.590Z,20.83
2018-06-09T01:23:39.810Z,20.79
2018-06-09T01:26:08.013Z,20.76
2018-06-09T01:28:36.261Z,20.72
2018-06-09T01:31:04.459Z,20.71
2018-06-09T01:33:33.208Z,20.72
2018-06-09T01:36:01.377Z,20.72
2018-06-09T01:38:29.605Z,20.71
2018-06-09T01:40:58.114Z,20.68
2018-06-09T01:43:26.347Z,20.65
2018-06-09T01:45:54.543Z,20.60
2018-06-09T01:48:22.742Z,20.56
2018-06-09T01:50:51.027Z,20.52
2018-06-09T01:53:19.214Z,20.49
2018-06-09T01:55:47.461Z,20.44
2018-06-09T01:58:15.797Z,20.42
2018-06-09T02:00:43.995Z,20.40
2018-06-09T02:03:12.214Z,20.40
2018-06-09T02:05:40.392Z,20.38
2018-06-09T02:08:08.615Z,20.38
2018-06-09T02:10:37.047Z,20.38
2018-06-09T02:13:05.444Z,20.36
2018-06-09T02:15:33.701Z,20.34
2018-06-09T02:18:01.847Z,20.33
2018-06-09T02:20:30.032Z,20.31
2018-06-09T02:22:58.247Z,20.33
2018-06-09T02:25:26.460Z,20.33
2018-06-09T02:27:54.653Z,20.33
2018-06-09T02:30:22.871Z,20.32
2018-06-09T02:32:51.050Z,20.29
2018-06-09T02:35:19.282Z,20.26
2018-06-09T02:37:47.590Z,20.25
2018-06-09T02:40:15.848Z,20.26
2018-06-09T02:42:43.988Z,20.26
2018-06-09T02:45:12.444Z,20.27
2018-06-09T02:47:41.015Z,20.21
2018-06-09T02:50:09.420Z,20.18
2018-06-09T02:52:37.968Z,20.12
2018-06-09T02:55:06.173Z,20.11
2018-06-09T02:57:34.383Z,20.13
2018-06-09T03:00:02.591Z,20.11
2018-06-09T03:02:30.820Z,20.07
2018-06-09T03:04:58.984Z,20.05
2018-06-09T03:07:27.245Z,19.98
2018-06-09T03:09:55.521Z,19.94
2018-06-09T03:12:23.733Z,19.92
2018-06-09T03:14:51.902Z,19.97
2018-06-09T03:17:20.133Z,20.04
2018-06-09T03:19:48.285Z,20.10
2018-06-09T03:22:16.512Z,20.13
2018-06-09T03:24:44.684Z,20.16
2018-06-09T03:27:12.868Z,20.19
2018-06-09T03:29:41.086Z,20.21
2018-06-09T03:32:09.372Z,20.25
2018-06-09T03:34:37.554Z,20.26
2018-06-09T03:37:05.763Z,20.17
2018-06-09T03:39:33.966Z,20.15
2018-06-09T03:42:02.472Z,20.11
2018-06-09T03:44:30.681Z,20.15
2018-06-09T03:46:58.932Z,20.21
2018-06-09T03:49:27.155Z,20.26
2018-06-09T03:51:55.407Z,20.28
2018-06-09T03:54:23.659Z,20.33
2018-06-09T03:56:52.230Z,20.39
2018-06-09T03:59:20.469Z,20.50
2018-06-09T04:01:48.723Z,21.04
2018-06-09T04:04:16.941Z,22.04
2018-06-09T04:06:45.114Z,22.84
2018-06-09T04:09:13.337Z,23.44
2018-06-09T04:11:41.539Z,23.67
2018-06-09T04:14:10.064Z,23.98
2018-06-09T04:16:38.356Z,24.37
2018-06-09T04:19:06.563Z,24.83
2018-06-09T04:21:34.755Z,25.25
2018-06-09T04:24:03.144Z,25.38
2018-06-09T04:26:31.359Z,25.49
2018-06-09T04:28:59.668Z,26.49
2018-06-09T04:31:27.909Z,27.05
2018-06-09T04:33:56.447Z,27.39
2018-06-09T04:36:24.667Z,27.12
2018-06-09T04:38:52.948Z,27.02
2018-06-09T04:41:21.144Z,27.28
2018-06-09T04:43:49.348Z,27.29
2018-06-09T04:46:17.503Z,27.61
2018-06-09T04:48:45.711Z,27.32
2018-06-09T04:51:13.925Z,27.54
2018-06-09T04:53:42.123Z,27.77
2018-06-09T04:56:10.313Z,27.59
2018-06-09T04:58:38.508Z,27.76
2018-06-09T05:01:06.747Z,27.76
2018-06-09T05:03:34.915Z,27.97
2018-06-09T05:06:03.182Z,29.15
2018-06-09T05:08:31.370Z,29.60
2018-06-09T05:10:59.997Z,30.02
2018-06-09T05:13:28.214Z,30.09
2018-06-09T05:15:56.729Z,30.54
2018-06-09T05:18:24.936Z,30.91
2018-06-09T05:20:53.455Z,30.46
2018-06-09T05:23:21.946Z,30.26
2018-06-09T05:25:50.187Z,29.73
2018-06-09T05:28:18.416Z,29.32
2018-06-09T05:30:46.706Z,28.60
2018-06-09T05:33:14.945Z,28.62
2018-06-09T05:35:43.161Z,28.50
2018-06-09T05:38:11.335Z,28.88
2018-06-09T05:40:39.591Z,29.41
2018-06-09T05:43:07.805Z,29.75
2018-06-09T05:45:36.291Z,29.97
2018-06-09T05:48:11.108Z,29.24
2018-06-09T05:50:39.317Z,28.45
2018-06-09T05:53:07.581Z,27.58
2018-06-09T05:55:35.855Z,26.28
2018-06-09T05:58:04.153Z,25.42
2018-06-09T06:00:32.796Z,25.13
2018-06-09T06:03:00.991Z,24.96
2018-06-09T06:05:29.210Z,24.73
2018-06-09T06:07:57.440Z,24.71
2018-06-09T06:10:25.697Z,24.82
2018-06-09T06:12:53.964Z,24.82
2018-06-09T06:15:22.425Z,24.92
2018-06-09T06:17:50.649Z,24.94
2018-06-09T06:20:18.880Z,24.85
2018-06-09T06:22:47.137Z,24.70
2018-06-09T06:25:15.360Z,24.68
2018-06-09T06:27:43.870Z,24.83
2018-06-09T06:30:12.117Z,25.12
2018-06-09T06:32:40.816Z,25.44
2018-06-09T06:35:09.376Z,25.45
2018-06-09T06:37:37.635Z,25.54
2018-06-09T06:40:05.881Z,25.68
2018-06-09T06:42:34.181Z,25.86
2018-06-09T06:45:02.793Z,26.06
2018-06-09T06:47:31.023Z,26.22
2018-06-09T06:49:59.321Z,26.06
2018-06-09T06:52:27.544Z,26.14
2018-06-09T06:54:55.742Z,26.34
2018-06-09T06:57:24.066Z,26.46
2018-06-09T06:59:52.261Z,26.62
2018-06-09T07:02:20.447Z,26.79
2018-06-09T07:04:48.651Z,26.91
2018-06-09T07:07:17.183Z,27.13
2018-06-09T07:09:45.502Z,27.13
2018-06-09T07:12:13.739Z,26.98
2018-06-09T07:14:41.983Z,27.13
2018-06-09T07:17:10.238Z,27.20
2018-06-09T07:19:38.478Z,27.31
2018-06-09T07:22:06.804Z,27.58
2018-06-09T07:24:35.029Z,27.79
2018-06-09T07:27:03.201Z,27.71
2018-06-09T07:29:31.777Z,27.48
2018-06-09T07:32:00.335Z,27.43
2018-06-09T07:34:28.492Z,27.52
2018-06-09T07:36:56.773Z,27.62
2018-06-09T07:39:25.083Z,27.90
2018-06-09T07:41:53.297Z,27.99
2018-06-09T07:44:21.788Z,28.20
2018-06-09T07:46:50.056Z,28.04
2018-06-09T07:49:18.256Z,28.10
2018-06-09T07:51:46.494Z,28.13
2018-06-09T07:54:14.690Z,28.26
2018-06-09T07:56:42.852Z,28.47
2018-06-09T07:59:11.456Z,28.36
2018-06-09T08:01:39.699Z,28.25
2018-06-09T08:04:07.928Z,28.08
2018-06-09T08:06:36.122Z,28.19
2018-06-09T08:09:05.649Z,28.18
2018-06-09T08:11:33.982Z,28.41
2018-06-09T08:14:02.271Z,28.45
2018-06-09T08:16:30.492Z,28.51
2018-06-09T08:18:58.672Z,28.39
2018-06-09T08:21:26.902Z,28.38
2018-06-09T08:23:55.101Z,28.48
2018-06-09T08:26:23.454Z,28.41
2018-06-09T08:28:51.635Z,28.46
2018-06-09T08:31:19.949Z,28.47
2018-06-09T08:33:48.160Z,28.51
2018-06-09T08:36:16.484Z,28.64
2018-06-09T08:38:44.648Z,28.67
2018-06-09T08:41:12.863Z,28.76
2018-06-09T08:43:41.103Z,28.73
2018-06-09T08:46:09.332Z,28.95
2018-06-09T08:48:37.607Z,28.98
2018-06-09T08:51:05.864Z,29.04
2018-06-09T08:53:34.148Z,29.26
2018-06-09T08:56:02.317Z,29.51
2018-06-09T08:58:30.504Z,29.71
2018-06-09T09:00:58.956Z,29.46
2018-06-09T09:03:27.182Z,29.26
2018-06-09T09:05:55.420Z,29.28
2018-06-09T09:08:23.579Z,29.69
2018-06-09T09:10:51.885Z,29.88
2018-06-09T09:13:20.154Z,30.09
2018-06-09T09:15:48.363Z,30.25
2018-06-09T09:18:16.594Z,30.35
2018-06-09T09:20:45.298Z,30.45
2018-06-09T09:23:13.526Z,30.39
2018-06-09T09:25:41.844Z,30.06
2018-06-09T09:28:10.052Z,29.83
2018-06-09T09:30:38.306Z,29.92
2018-06-09T09:33:06.583Z,30.24
2018-06-09T09:35:34.793Z,30.50
2018-06-09T09:38:03.047Z,30.58
2018-06-09T09:40:31.238Z,30.64
2018-06-09T09:42:59.423Z,30.64
2018-06-09T09:45:27.669Z,30.31
2018-06-09T09:47:56.048Z,30.27
2018-06-09T09:50:24.294Z,30.28
2018-06-09T09:52:52.561Z,30.30
2018-06-09T09:55:20.875Z,30.47
2018-06-09T09:58:00.774Z,30.65
2018-06-09T10:00:34.445Z,30.82
2018-06-09T10:03:02.648Z,30.69
2018-06-09T10:05:30.832Z,30.76
2018-06-09T10:07:59.057Z,30.84
2018-06-09T10:10:27.305Z,30.99
2018-06-09T10:12:55.486Z,30.86
2018-06-09T10:15:23.672Z,30.79
2018-06-09T10:17:51.898Z,30.62
2018-06-09T10:20:20.104Z,30.53
2018-06-09T10:22:48.267Z,30.38
2018-06-09T10:25:16.456Z,30.45
2018-06-09T10:27:44.713Z,30.39
2018-06-09T10:30:12.993Z,30.26
2018-06-09T10:32:41.211Z,30.17
2018-06-09T10:35:09.427Z,30.29
2018-06-09T10:37:37.641Z,30.11
2018-06-09T10:40:06.232Z,30.07
2018-06-09T10:42:34.445Z,30.25
2018-06-09T10:45:03.107Z,30.38
2018-06-09T10:47:31.352Z,30.53
2018-06-09T10:49:59.502Z,30.71
2018-06-09T10:52:27.776Z,30.95
2018-06-09T10:54:56.376Z,31.12
2018-06-09T10:57:24.713Z,31.08
2018-06-09T10:59:52.946Z,30.66
2018-06-09T11:02:21.124Z,30.57
2018-06-09T11:04:49.353Z,30.31
2018-06-09T11:07:17.520Z,30.49
2018-06-09T11:09:45.745Z,30.57
2018-06-09T11:12:13.968Z,30.51
2018-06-09T11:14:42.192Z,30.56
2018-06-09T11:17:10.438Z,30.65
2018-06-09T11:19:38.673Z,30.71
2018-06-09T11:22:06.879Z,30.66
2018-06-09T11:24:35.089Z,30.69
2018-06-09T11:27:03.255Z,30.77
2018-06-09T11:29:31.536Z,31.03
2018-06-09T11:32:00.181Z,31.28
2018-06-09T11:34:28.338Z,31.16
2018-06-09T11:36:56.583Z,31.04
2018-06-09T11:39:24.878Z,30.65
2018-06-09T11:41:53.077Z,30.45
2018-06-09T11:44:21.247Z,30.69
2018-06-09T11:46:49.503Z,31.04
2018-06-09T11:49:17.663Z,31.27
2018-06-09T11:51:45.811Z,31.23
2018-06-09T11:54:14.024Z,31.14
2018-06-09T11:56:42.256Z,31.26
2018-06-09T11:59:10.897Z,31.05
2018-06-09T12:01:39.128Z,31.02
2018-06-09T12:04:07.754Z,31.06
2018-06-09T12:06:35.948Z,30.99
2018-06-09T12:09:05.950Z,31.21
2018-06-09T12:11:34.132Z,31.42
2018-06-09T12:14:02.423Z,31.31
2018-06-09T12:16:31.011Z,31.20
2018-06-09T12:18:59.190Z,31.25
2018-06-09T12:21:27.446Z,31.18
2018-06-09T12:23:55.659Z,31.42
2018-06-09T12:26:23.881Z,31.64
2018-06-09T12:28:52.110Z,31.75
2018-06-09T12:31:20.308Z,31.85
2018-06-09T12:33:48.468Z,31.98
2018-06-09T12:36:17.009Z,32.12
2018-06-09T12:38:45.192Z,32.24
2018-06-09T12:41:13.404Z,31.90
2018-06-09T12:43:41.624Z,31.40
2018-06-09T12:46:09.867Z,31.52
2018-06-09T12:48:38.548Z,31.22
2018-06-09T12:51:06.679Z,31.32
2018-06-09T12:53:34.904Z,31.45
2018-06-09T12:56:03.134Z,31.44
2018-06-09T12:58:31.365Z,31.42
2018-06-09T13:00:59.950Z,31.68
2018-06-09T13:03:28.115Z,31.94
2018-06-09T13:05:56.337Z,32.03
2018-06-09T13:08:24.527Z,31.74
2018-06-09T13:10:52.695Z,31.73
2018-06-09T13:13:20.937Z,31.77
2018-06-09T13:15:49.181Z,31.88
2018-06-09T13:18:17.358Z,32.13
2018-06-09T13:20:45.921Z,32.12
2018-06-09T13:23:14.164Z,32.34
2018-06-09T13:25:42.413Z,32.53
2018-06-09T13:28:10.673Z,32.63
2018-06-09T13:30:38.977Z,32.54
2018-06-09T13:33:07.243Z,32.67
2018-06-09T13:35:35.467Z,32.81
2018-06-09T13:38:04.033Z,32.68
2018-06-09T13:40:32.217Z,32.43
2018-06-09T13:43:00.444Z,32.31
2018-06-09T13:45:28.659Z,32.31
2018-06-09T13:47:57.283Z,32.59
2018-06-09T13:50:25.520Z,32.93
2018-06-09T13:52:53.748Z,33.07
2018-06-09T13:55:21.927Z,33.19
2018-06-09T13:57:50.123Z,32.84
2018-06-09T14:00:18.660Z,32.68
2018-06-09T14:02:46.936Z,32.92
2018-06-09T14:05:15.077Z,33.01
2018-06-09T14:07:43.612Z,33.10
2018-06-09T14:10:12.284Z,33.11
2018-06-09T14:12:40.553Z,33.14
2018-06-09T14:15:08.780Z,33.28
2018-06-09T14:17:37.160Z,33.39
2018-06-09T14:20:05.474Z,33.14
2018-06-09T14:22:33.718Z,33.13
2018-06-09T14:25:01.938Z,32.90
2018-06-09T14:27:31.089Z,32.87
2018-06-09T14:29:59.337Z,32.74
2018-06-09T14:32:27.569Z,32.89
2018-06-09T14:34:55.742Z,32.60
2018-06-09T14:37:23.969Z,31.92
2018-06-09T14:39:52.135Z,31.84
2018-06-09T14:42:20.365Z,31.66
2018-06-09T14:44:48.617Z,31.68
2018-06-09T14:47:16.807Z,31.88
2018-06-09T14:49:45.020Z,32.19
2018-06-09T14:52:13.223Z,32.99
2018-06-09T14:54:41.515Z,34.21
2018-06-09T14:57:09.742Z,35.32
2018-06-09T14:59:37.988Z,36.45
2018-06-09T15:02:06.199Z,37.68
2018-06-09T15:04:34.370Z,37.13
2018-06-09T15:07:02.876Z,36.21
2018-06-09T15:09:31.113Z,36.59
2018-06-09T15:11:59.325Z,36.64
2018-06-09T15:14:27.600Z,37.21
2018-06-09T15:16:55.922Z,37.31
2018-06-09T15:19:24.144Z,36.46
2018-06-09T15:21:52.414Z,34.13
2018-06-09T15:24:20.703Z,32.79
2018-06-09T15:26:48.930Z,33.70
2018-06-09T15:29:17.372Z,35.41
2018-06-09T15:31:45.612Z,36.78
2018-06-09T15:34:13.791Z,37.91
2018-06-09T15:36:41.977Z,37.75
2018-06-09T15:39:10.272Z,36.01
2018-06-09T15:41:38.518Z,36.17
2018-06-09T15:44:06.817Z,37.30
2018-06-09T15:46:35.330Z,37.44
2018-06-09T15:49:03.583Z,36.13
2018-06-09T15:51:31.832Z,34.74
2018-06-09T15:54:00.044Z,33.09
2018-06-09T15:56:28.282Z,33.15
2018-06-09T15:58:56.481Z,34.25
2018-06-09T16:01:24.680Z,35.53
2018-06-09T16:03:52.884Z,35.79
2018-06-09T16:06:21.504Z,35.56
2018-06-09T16:08:50.082Z,36.80
2018-06-09T16:11:18.543Z,38.19
2018-06-09T16:13:46.739Z,38.21
2018-06-09T16:16:14.947Z,36.89
2018-06-09T16:18:43.134Z,35.49
2018-06-09T16:21:11.369Z,34.07
2018-06-09T16:23:39.592Z,33.21
2018-06-09T16:26:07.884Z,32.65
2018-06-09T16:28:36.089Z,32.35
2018-06-09T16:31:04.337Z,32.29
2018-06-09T16:33:32.890Z,32.27
2018-06-09T16:36:01.113Z,32.13
2018-06-09T16:38:29.366Z,31.53
2018-06-09T16:40:57.603Z,31.39
2018-06-09T16:43:25.825Z,31.54
2018-06-09T16:45:53.992Z,31.21
2018-06-09T16:48:22.210Z,31.05
2018-06-09T16:50:51.072Z,30.99
2018-06-09T16:53:19.306Z,31.17
2018-06-09T16:55:47.549Z,31.50
2018-06-09T16:58:16.126Z,31.91
2018-06-09T17:00:44.708Z,31.80
2018-06-09T17:03:12.939Z,31.51
2018-06-09T17:05:41.176Z,31.20
2018-06-09T17:08:09.491Z,31.15
2018-06-09T17:10:37.704Z,31.06
2018-06-09T17:13:05.917Z,31.17
2018-06-09T17:15:34.099Z,31.09
2018-06-09T17:18:02.669Z,30.89
2018-06-09T17:20:30.864Z,30.81
2018-06-09T17:22:59.083Z,30.74
2018-06-09T17:25:27.317Z,30.88
2018-06-09T17:27:55.550Z,31.05
2018-06-09T17:30:23.737Z,30.99
2018-06-09T17:32:51.972Z,30.91
2018-06-09T17:35:20.170Z,30.87
2018-06-09T17:37:48.437Z,30.72
2018-06-09T17:40:16.717Z,30.58
2018-06-09T17:42:44.939Z,30.48
2018-06-09T17:45:13.145Z,30.34
2018-06-09T17:47:41.370Z,30.28
2018-06-09T17:50:09.598Z,30.25
2018-06-09T17:52:37.824Z,30.25
2018-06-09T17:55:06.192Z,30.23
2018-06-09T17:57:34.330Z,30.17
2018-06-09T18:00:02.589Z,30.13
2018-06-09T18:02:30.864Z,30.20
2018-06-09T18:04:59.130Z,30.30
2018-06-09T18:07:27.385Z,30.14
2018-06-09T18:09:55.565Z,29.73
2018-06-09T18:12:23.765Z,29.29
2018-06-09T18:14:51.928Z,28.89
2018-06-09T18:17:20.258Z,28.64
2018-06-09T18:19:48.789Z,28.35
2018-06-09T18:22:17.054Z,28.08
2018-06-09T18:24:45.363Z,27.95
2018-06-09T18:27:13.568Z,27.72
2018-06-09T18:29:41.835Z,27.67
2018-06-09T18:32:10.040Z,27.51
2018-06-09T18:34:38.321Z,27.35
2018-06-09T18:37:06.573Z,27.24
2018-06-09T18:39:34.811Z,27.18
2018-06-09T18:42:02.987Z,27.10
2018-06-09T18:44:31.241Z,26.99
2018-06-09T18:46:59.796Z,26.86
2018-06-09T18:49:28.349Z,26.80
2018-06-09T18:51:56.541Z,26.76
2018-06-09T18:54:24.739Z,26.75
2018-06-09T18:56:52.970Z,26.69
2018-06-09T18:59:21.430Z,26.64
2018-06-09T19:01:49.709Z,26.54
2018-06-09T19:04:17.925Z,26.54
2018-06-09T19:06:46.122Z,26.49
2018-06-09T19:09:14.356Z,26.43
2018-06-09T19:11:42.868Z,26.37
2018-06-09T19:14:11.076Z,26.29
2018-06-09T19:16:39.346Z,26.27
2018-06-09T19:19:07.490Z,26.27
2018-06-09T19:21:36.155Z,26.23
2018-06-09T19:24:04.404Z,26.20
2018-06-09T19:26:32.640Z,26.18
2018-06-09T19:29:00.808Z,26.19
2018-06-09T19:31:28.960Z,26.12
2018-06-09T19:33:57.189Z,26.09
2018-06-09T19:36:25.436Z,26.03
2018-06-09T19:38:53.608Z,25.98
2018-06-09T19:41:21.846Z,25.93
2018-06-09T19:43:50.022Z,25.89
2018-06-09T19:46:18.205Z,25.83
2018-06-09T19:48:46.449Z,25.78
2018-06-09T19:51:14.701Z,25.74
2018-06-09T19:53:43.013Z,25.68
2018-06-09T19:56:11.417Z,25.66
2018-06-09T19:58:39.874Z,25.64
2018-06-09T20:01:08.163Z,25.57
2018-06-09T20:03:36.346Z,25.55
2018-06-09T20:06:04.598Z,25.49
2018-06-09T20:08:32.852Z,25.48
2018-06-09T20:11:01.036Z,25.45
2018-06-09T20:13:29.255Z,25.42
2018-06-09T20:15:57.715Z,25.40
2018-06-09T20:18:25.953Z,25.36
2018-06-09T20:20:54.171Z,25.29
2018-06-09T20:23:22.432Z,25.28
2018-06-09T20:25:50.782Z,25.25
2018-06-09T20:28:20.424Z,25.23
2018-06-09T20:30:48.735Z,25.19
2018-06-09T20:33:17.436Z,25.16
2018-06-09T20:35:45.769Z,25.12
2018-06-09T20:38:14.233Z,25.13
2018-06-09T20:40:42.598Z,25.13
2018-06-09T20:43:11.678Z,25.12
2018-06-09T20:45:39.838Z,25.14
2018-06-09T20:48:08.160Z,25.10
2018-06-09T20:50:36.748Z,25.06
2018-06-09T20:53:05.414Z,25.00
2018-06-09T20:55:34.210Z,24.95
2018-06-09T20:58:02.541Z,24.91
2018-06-09T21:00:30.858Z,24.91
2018-06-09T21:02:59.102Z,24.91
2018-06-09T21:05:27.337Z,24.93
2018-06-09T21:07:56.191Z,24.92
2018-06-09T21:10:24.440Z,24.90
2018-06-09T21:12:52.699Z,24.86
2018-06-09T21:15:20.971Z,24.86
2018-06-09T21:17:49.242Z,24.83
2018-06-09T21:20:17.476Z,24.80
2018-06-09T21:22:45.685Z,24.77
2018-06-09T21:25:13.944Z,24.73
2018-06-09T21:28:47.303Z,24.68
2018-06-09T21:31:17.535Z,24.61
2018-06-09T21:34:02.563Z,24.64
2018-06-09T21:36:35.345Z,24.62
2018-06-09T21:39:10.585Z,24.65
2018-06-09T21:41:45.231Z,24.71
2018-06-09T21:44:15.002Z,24.77
2018-06-09T21:46:48.654Z,24.80
2018-06-09T21:49:17.589Z,24.84
2018-06-09T21:51:45.809Z,24.82
2018-06-09T21:54:14.076Z,24.78
2018-06-09T21:56:42.339Z,24.74
2018-06-09T21:59:10.542Z,24.72
2018-06-09T22:01:38.812Z,24.70
2018-06-09T22:04:07.033Z,24.68
2018-06-09T22:06:35.232Z,24.68
2018-06-09T22:09:04.296Z,24.61
2018-06-09T22:11:32.534Z,24.49
2018-06-09T22:14:00.793Z,24.40
2018-06-09T22:16:28.965Z,24.42
2018-06-09T22:18:57.141Z,24.41
2018-06-09T22:21:25.338Z,24.41
2018-06-09T22:23:53.628Z,24.41
2018-06-09T22:26:21.825Z,24.38
2018-06-09T22:28:50.076Z,24.34
2018-06-09T22:31:18.301Z,24.29
2018-06-09T22:33:46.480Z,24.23
2018-06-09T22:36:14.739Z,24.11
2018-06-09T22:38:42.913Z,24.00
2018-06-09T22:41:11.221Z,23.96
2018-06-09T22:43:39.477Z,23.91
2018-06-09T22:46:07.735Z,23.79
2018-06-09T22:48:35.959Z,23.75
2018-06-09T22:51:04.181Z,23.72
2018-06-09T22:53:32.798Z,23.69
2018-06-09T22:56:01.002Z,23.66
2018-06-09T22:58:29.307Z,23.65
2018-06-09T23:00:58.843Z,23.57
2018-06-09T23:03:27.077Z,23.53
2018-06-09T23:05:55.364Z,23.53
2018-06-09T23:08:23.546Z,23.58
2018-06-09T23:10:51.821Z,23.55
2018-06-09T23:13:20.053Z,23.51
2018-06-09T23:15:48.311Z,23.55
2018-06-09T23:18:16.526Z,23.49
2018-06-09T23:20:44.700Z,23.44
2018-06-09T23:23:12.929Z,23.37
2018-06-09T23:25:41.192Z,23.36
2018-06-09T23:28:09.590Z,23.33
2018-06-09T23:30:38.228Z,23.31
2018-06-09T23:33:06.501Z,23.31
2018-06-09T23:35:34.733Z,23.30
2018-06-09T23:38:02.964Z,23.34
2018-06-09T23:40:31.241Z,23.29
2018-06-09T23:42:59.473Z,23.17
2018-06-09T23:45:27.690Z,23.13
2018-06-09T23:47:55.892Z,23.08
2018-06-09T23:50:24.102Z,23.07
2018-06-09T23:52:52.314Z,23.07
2018-06-09T23:55:20.628Z,23.03
2018-06-09T23:57:48.925Z,23.00
